sensor_id;sensor_type;location;lat;lon;timestamp;P1;durP1;ratioP1;P2;durP2;ratioP2
62554;SDS011;48610;52.144;8.624;2022-11-25T00:02:55;15.05;;;5.47;;
62554;SDS011;48610;52.144;8.624;2022-11-25T00:05:56;18.98;;;5.57;;
62554;SDS011;48610;52.144;8.624;2022-11-25T00:08:57;15.60;;;6.30;;
62554;SDS011;48610;52.144;8.624;2022-11-25T00:12:00;16.17;;;5.65;;
62554;SDS011;48610;52.144;8.624;2022-11-25T00:15:01;19.13;;;5.22;;
62554;SDS011;48610;52.144;8.624;2022-11-25T00:18:02;22.08;;;5.38;;
62554;SDS011;48610;52.144;8.624;2022-11-25T00:21:09;22.60;;;5.75;;
62554;SDS011;48610;52.144;8.624;2022-11-25T00:24:13;13.77;;;4.97;;
62554;SDS011;48610;52.144;8.624;2022-11-25T00:27:14;15.43;;;5.05;;
62554;SDS011;48610;52.144;8.624;2022-11-25T00:30:15;12.77;;;4.95;;
62554;SDS011;48610;52.144;8.624;2022-11-25T00:33:16;14.10;;;5.05;;
62554;SDS011;48610;52.144;8.624;2022-11-25T00:36:24;12.20;;;4.95;;
62554;SDS011;48610;52.144;8.624;2022-11-25T00:39:26;13.45;;;5.78;;
62554;SDS011;48610;52.144;8.624;2022-11-25T00:42:27;13.27;;;4.85;;
62554;SDS011;48610;52.144;8.624;2022-11-25T00:45:47;14.20;;;5.38;;
62554;SDS011;48610;52.144;8.624;2022-11-25T00:48:47;16.02;;;5.95;;
62554;SDS011;48610;52.144;8.624;2022-11-25T00:51:48;15.02;;;5.55;;
62554;SDS011;48610;52.144;8.624;2022-11-25T00:54:49;16.73;;;5.72;;
62554;SDS011;48610;52.144;8.624;2022-11-25T00:57:50;16.35;;;5.80;;
62554;SDS011;48610;52.144;8.624;2022-11-25T01:00:51;16.10;;;5.20;;
62554;SDS011;48610;52.144;8.624;2022-11-25T01:03:51;11.95;;;5.00;;
62554;SDS011;48610;52.144;8.624;2022-11-25T01:06:53;11.98;;;5.20;;
62554;SDS011;48610;52.144;8.624;2022-11-25T01:09:55;15.73;;;5.20;;
62554;SDS011;48610;52.144;8.624;2022-11-25T01:12:56;16.05;;;5.20;;
62554;SDS011;48610;52.144;8.624;2022-11-25T01:15:59;20.15;;;5.28;;
62554;SDS011;48610;52.144;8.624;2022-11-25T01:19:01;10.65;;;3.90;;
62554;SDS011;48610;52.144;8.624;2022-11-25T01:22:02;17.58;;;4.55;;
62554;SDS011;48610;52.144;8.624;2022-11-25T01:25:03;22.23;;;4.85;;
62554;SDS011;48610;52.144;8.624;2022-11-25T01:28:03;20.67;;;5.47;;
62554;SDS011;48610;52.144;8.624;2022-11-25T01:31:05;17.85;;;4.75;;
62554;SDS011;48610;52.144;8.624;2022-11-25T01:34:12;10.65;;;4.10;;
62554;SDS011;48610;52.144;8.624;2022-11-25T01:37:20;15.70;;;4.63;;
62554;SDS011;48610;52.144;8.624;2022-11-25T01:40:21;17.42;;;4.22;;
62554;SDS011;48610;52.144;8.624;2022-11-25T01:43:22;15.85;;;4.35;;
62554;SDS011;48610;52.144;8.624;2022-11-25T01:46:24;15.93;;;4.65;;
62554;SDS011;48610;52.144;8.624;2022-11-25T01:52:29;14.05;;;5.13;;
62554;SDS011;48610;52.144;8.624;2022-11-25T01:55:33;15.30;;;3.73;;
62554;SDS011;48610;52.144;8.624;2022-11-25T01:58:35;11.68;;;3.35;;
62554;SDS011;48610;52.144;8.624;2022-11-25T02:01:37;13.70;;;4.25;;
62554;SDS011;48610;52.144;8.624;2022-11-25T02:04:38;14.13;;;4.45;;
62554;SDS011;48610;52.144;8.624;2022-11-25T02:07:41;18.48;;;4.00;;
62554;SDS011;48610;52.144;8.624;2022-11-25T02:10:45;18.33;;;3.78;;
62554;SDS011;48610;52.144;8.624;2022-11-25T02:13:46;15.48;;;4.20;;
62554;SDS011;48610;52.144;8.624;2022-11-25T02:16:49;18.58;;;4.00;;
62554;SDS011;48610;52.144;8.624;2022-11-25T02:22:59;13.63;;;4.25;;
62554;SDS011;48610;52.144;8.624;2022-11-25T02:26:11;15.30;;;3.78;;
62554;SDS011;48610;52.144;8.624;2022-11-25T02:29:12;11.63;;;3.85;;
62554;SDS011;48610;52.144;8.624;2022-11-25T02:32:13;11.10;;;3.75;;
62554;SDS011;48610;52.144;8.624;2022-11-25T02:38:35;11.13;;;3.65;;
62554;SDS011;48610;52.144;8.624;2022-11-25T02:41:57;19.17;;;4.45;;
62554;SDS011;48610;52.144;8.624;2022-11-25T02:44:59;11.77;;;3.72;;
62554;SDS011;48610;52.144;8.624;2022-11-25T02:51:28;13.27;;;3.85;;
62554;SDS011;48610;52.144;8.624;2022-11-25T02:54:30;13.02;;;3.90;;
62554;SDS011;48610;52.144;8.624;2022-11-25T02:57:31;10.57;;;3.90;;
62554;SDS011;48610;52.144;8.624;2022-11-25T03:00:31;10.60;;;4.15;;
62554;SDS011;48610;52.144;8.624;2022-11-25T03:03:32;13.95;;;3.92;;
62554;SDS011;48610;52.144;8.624;2022-11-25T03:06:33;19.45;;;4.57;;
62554;SDS011;48610;52.144;8.624;2022-11-25T03:09:34;14.60;;;4.13;;
62554;SDS011;48610;52.144;8.624;2022-11-25T03:12:34;13.88;;;4.78;;
62554;SDS011;48610;52.144;8.624;2022-11-25T03:15:35;10.48;;;3.60;;
62554;SDS011;48610;52.144;8.624;2022-11-25T03:18:36;22.02;;;4.07;;
62554;SDS011;48610;52.144;8.624;2022-11-25T03:21:37;11.40;;;3.53;;
62554;SDS011;48610;52.144;8.624;2022-11-25T03:24:37;11.57;;;3.67;;
62554;SDS011;48610;52.144;8.624;2022-11-25T03:27:38;12.05;;;3.70;;
62554;SDS011;48610;52.144;8.624;2022-11-25T03:30:39;15.10;;;4.55;;
62554;SDS011;48610;52.144;8.624;2022-11-25T03:33:39;15.40;;;3.83;;
62554;SDS011;48610;52.144;8.624;2022-11-25T03:36:40;14.32;;;4.82;;
62554;SDS011;48610;52.144;8.624;2022-11-25T03:39:41;15.32;;;3.45;;
62554;SDS011;48610;52.144;8.624;2022-11-25T03:42:41;20.88;;;4.38;;
62554;SDS011;48610;52.144;8.624;2022-11-25T03:45:42;30.08;;;5.45;;
62554;SDS011;48610;52.144;8.624;2022-11-25T03:48:42;19.85;;;4.15;;
62554;SDS011;48610;52.144;8.624;2022-11-25T03:51:43;9.52;;;4.10;;
62554;SDS011;48610;52.144;8.624;2022-11-25T03:54:44;14.55;;;3.92;;
62554;SDS011;48610;52.144;8.624;2022-11-25T03:57:44;16.10;;;4.22;;
62554;SDS011;48610;52.144;8.624;2022-11-25T04:00:45;9.57;;;2.75;;
62554;SDS011;48610;52.144;8.624;2022-11-25T04:03:46;17.15;;;5.18;;
62554;SDS011;48610;52.144;8.624;2022-11-25T04:06:46;14.85;;;3.90;;
62554;SDS011;48610;52.144;8.624;2022-11-25T04:09:47;11.95;;;4.05;;
62554;SDS011;48610;52.144;8.624;2022-11-25T04:12:48;9.50;;;4.13;;
62554;SDS011;48610;52.144;8.624;2022-11-25T04:15:49;12.93;;;3.58;;
62554;SDS011;48610;52.144;8.624;2022-11-25T04:18:50;17.40;;;5.03;;
62554;SDS011;48610;52.144;8.624;2022-11-25T04:21:50;12.00;;;3.50;;
62554;SDS011;48610;52.144;8.624;2022-11-25T04:24:52;13.45;;;4.10;;
62554;SDS011;48610;52.144;8.624;2022-11-25T04:27:52;19.65;;;4.38;;
62554;SDS011;48610;52.144;8.624;2022-11-25T04:30:53;10.80;;;3.53;;
62554;SDS011;48610;52.144;8.624;2022-11-25T04:33:53;13.30;;;4.47;;
62554;SDS011;48610;52.144;8.624;2022-11-25T04:36:54;20.77;;;5.00;;
62554;SDS011;48610;52.144;8.624;2022-11-25T04:39:55;9.02;;;3.72;;
62554;SDS011;48610;52.144;8.624;2022-11-25T04:42:55;11.82;;;4.30;;
62554;SDS011;48610;52.144;8.624;2022-11-25T04:45:56;16.40;;;4.80;;
62554;SDS011;48610;52.144;8.624;2022-11-25T04:48:57;17.17;;;4.10;;
62554;SDS011;48610;52.144;8.624;2022-11-25T04:51:57;15.57;;;4.40;;
62554;SDS011;48610;52.144;8.624;2022-11-25T04:54:58;15.90;;;4.57;;
62554;SDS011;48610;52.144;8.624;2022-11-25T04:57:59;14.77;;;3.72;;
62554;SDS011;48610;52.144;8.624;2022-11-25T05:00:59;13.93;;;4.28;;
62554;SDS011;48610;52.144;8.624;2022-11-25T05:04:00;8.80;;;4.50;;
62554;SDS011;48610;52.144;8.624;2022-11-25T05:07:01;14.02;;;4.15;;
62554;SDS011;48610;52.144;8.624;2022-11-25T05:10:02;18.05;;;4.53;;
62554;SDS011;48610;52.144;8.624;2022-11-25T05:13:03;16.90;;;4.63;;
62554;SDS011;48610;52.144;8.624;2022-11-25T05:16:04;18.10;;;5.10;;
62554;SDS011;48610;52.144;8.624;2022-11-25T05:19:05;21.13;;;5.60;;
62554;SDS011;48610;52.144;8.624;2022-11-25T05:22:08;16.85;;;5.43;;
62554;SDS011;48610;52.144;8.624;2022-11-25T05:25:09;27.63;;;5.93;;
62554;SDS011;48610;52.144;8.624;2022-11-25T05:28:10;20.80;;;5.22;;
62554;SDS011;48610;52.144;8.624;2022-11-25T05:31:11;22.23;;;5.70;;
62554;SDS011;48610;52.144;8.624;2022-11-25T05:34:12;14.77;;;5.13;;
62554;SDS011;48610;52.144;8.624;2022-11-25T05:37:12;12.95;;;5.00;;
62554;SDS011;48610;52.144;8.624;2022-11-25T05:40:13;23.58;;;5.47;;
62554;SDS011;48610;52.144;8.624;2022-11-25T05:43:15;17.48;;;5.57;;
62554;SDS011;48610;52.144;8.624;2022-11-25T05:46:16;18.15;;;6.35;;
62554;SDS011;48610;52.144;8.624;2022-11-25T05:49:17;20.20;;;5.82;;
62554;SDS011;48610;52.144;8.624;2022-11-25T05:52:18;18.88;;;5.85;;
62554;SDS011;48610;52.144;8.624;2022-11-25T05:55:18;17.02;;;5.47;;
62554;SDS011;48610;52.144;8.624;2022-11-25T05:58:19;14.73;;;5.32;;
62554;SDS011;48610;52.144;8.624;2022-11-25T06:01:20;16.42;;;5.82;;
62554;SDS011;48610;52.144;8.624;2022-11-25T06:04:21;13.18;;;5.45;;
62554;SDS011;48610;52.144;8.624;2022-11-25T06:07:21;16.00;;;5.63;;
62554;SDS011;48610;52.144;8.624;2022-11-25T06:10:22;22.73;;;6.70;;
62554;SDS011;48610;52.144;8.624;2022-11-25T06:13:23;18.17;;;6.07;;
62554;SDS011;48610;52.144;8.624;2022-11-25T06:16:24;25.02;;;7.70;;
62554;SDS011;48610;52.144;8.624;2022-11-25T06:19:25;32.53;;;7.32;;
62554;SDS011;48610;52.144;8.624;2022-11-25T06:22:25;22.50;;;6.85;;
62554;SDS011;48610;52.144;8.624;2022-11-25T06:25:26;23.88;;;7.32;;
62554;SDS011;48610;52.144;8.624;2022-11-25T06:28:26;30.60;;;6.47;;
62554;SDS011;48610;52.144;8.624;2022-11-25T06:31:27;24.10;;;7.13;;
62554;SDS011;48610;52.144;8.624;2022-11-25T06:34:27;23.23;;;8.07;;
62554;SDS011;48610;52.144;8.624;2022-11-25T06:37:28;20.15;;;7.45;;
62554;SDS011;48610;52.144;8.624;2022-11-25T06:40:28;21.00;;;7.15;;
62554;SDS011;48610;52.144;8.624;2022-11-25T06:43:29;33.50;;;8.48;;
62554;SDS011;48610;52.144;8.624;2022-11-25T06:46:31;20.65;;;6.32;;
62554;SDS011;48610;52.144;8.624;2022-11-25T06:49:31;22.95;;;8.07;;
62554;SDS011;48610;52.144;8.624;2022-11-25T06:52:32;33.83;;;8.90;;
62554;SDS011;48610;52.144;8.624;2022-11-25T06:55:33;26.75;;;8.40;;
62554;SDS011;48610;52.144;8.624;2022-11-25T06:58:34;18.60;;;7.55;;
62554;SDS011;48610;52.144;8.624;2022-11-25T07:01:35;31.48;;;9.02;;
62554;SDS011;48610;52.144;8.624;2022-11-25T07:04:36;29.48;;;8.60;;
62554;SDS011;48610;52.144;8.624;2022-11-25T07:07:36;19.63;;;8.70;;
62554;SDS011;48610;52.144;8.624;2022-11-25T07:10:37;33.10;;;10.23;;
62554;SDS011;48610;52.144;8.624;2022-11-25T07:13:38;26.25;;;9.77;;
62554;SDS011;48610;52.144;8.624;2022-11-25T07:16:39;31.60;;;9.07;;
62554;SDS011;48610;52.144;8.624;2022-11-25T07:19:43;30.88;;;8.77;;
62554;SDS011;48610;52.144;8.624;2022-11-25T07:22:44;30.20;;;9.63;;
62554;SDS011;48610;52.144;8.624;2022-11-25T07:25:45;31.80;;;8.75;;
62554;SDS011;48610;52.144;8.624;2022-11-25T07:28:45;38.78;;;11.27;;
62554;SDS011;48610;52.144;8.624;2022-11-25T07:31:46;32.53;;;10.98;;
62554;SDS011;48610;52.144;8.624;2022-11-25T07:34:48;28.92;;;8.40;;
62554;SDS011;48610;52.144;8.624;2022-11-25T07:37:50;27.23;;;8.98;;
62554;SDS011;48610;52.144;8.624;2022-11-25T07:40:52;23.05;;;8.30;;
62554;SDS011;48610;52.144;8.624;2022-11-25T07:43:53;30.90;;;9.18;;
62554;SDS011;48610;52.144;8.624;2022-11-25T07:46:55;21.70;;;9.02;;
62554;SDS011;48610;52.144;8.624;2022-11-25T07:49:56;28.17;;;8.38;;
62554;SDS011;48610;52.144;8.624;2022-11-25T07:52:56;25.55;;;8.93;;
62554;SDS011;48610;52.144;8.624;2022-11-25T07:56:00;21.42;;;9.27;;
62554;SDS011;48610;52.144;8.624;2022-11-25T07:59:02;23.90;;;8.52;;
62554;SDS011;48610;52.144;8.624;2022-11-25T08:02:04;43.63;;;9.50;;
62554;SDS011;48610;52.144;8.624;2022-11-25T08:05:05;28.50;;;9.88;;
62554;SDS011;48610;52.144;8.624;2022-11-25T08:08:06;27.50;;;8.98;;
62554;SDS011;48610;52.144;8.624;2022-11-25T08:11:10;23.92;;;9.15;;
62554;SDS011;48610;52.144;8.624;2022-11-25T08:14:13;27.45;;;11.13;;
62554;SDS011;48610;52.144;8.624;2022-11-25T08:17:14;43.05;;;11.93;;
62554;SDS011;48610;52.144;8.624;2022-11-25T08:20:15;26.38;;;11.27;;
62554;SDS011;48610;52.144;8.624;2022-11-25T08:23:15;45.72;;;12.55;;
62554;SDS011;48610;52.144;8.624;2022-11-25T08:26:17;40.38;;;13.02;;
62554;SDS011;48610;52.144;8.624;2022-11-25T08:29:20;37.30;;;11.75;;
62554;SDS011;48610;52.144;8.624;2022-11-25T08:32:21;33.20;;;11.82;;
62554;SDS011;48610;52.144;8.624;2022-11-25T08:35:22;33.05;;;12.00;;
62554;SDS011;48610;52.144;8.624;2022-11-25T08:38:23;34.10;;;12.40;;
62554;SDS011;48610;52.144;8.624;2022-11-25T08:41:28;39.03;;;11.70;;
62554;SDS011;48610;52.144;8.624;2022-11-25T08:44:31;37.10;;;12.30;;
62554;SDS011;48610;52.144;8.624;2022-11-25T08:47:31;34.50;;;12.43;;
62554;SDS011;48610;52.144;8.624;2022-11-25T08:50:32;37.95;;;11.85;;
62554;SDS011;48610;52.144;8.624;2022-11-25T08:53:33;35.65;;;13.10;;
62554;SDS011;48610;52.144;8.624;2022-11-25T08:56:34;45.17;;;14.05;;
62554;SDS011;48610;52.144;8.624;2022-11-25T08:59:35;41.50;;;14.95;;
62554;SDS011;48610;52.144;8.624;2022-11-25T09:02:35;37.75;;;13.05;;
62554;SDS011;48610;52.144;8.624;2022-11-25T09:05:40;49.08;;;14.02;;
62554;SDS011;48610;52.144;8.624;2022-11-25T09:11:43;45.17;;;14.60;;
62554;SDS011;48610;52.144;8.624;2022-11-25T09:14:44;46.80;;;14.82;;
62554;SDS011;48610;52.144;8.624;2022-11-25T09:17:45;41.03;;;15.23;;
62554;SDS011;48610;52.144;8.624;2022-11-25T09:20:45;52.53;;;14.23;;
62554;SDS011;48610;52.144;8.624;2022-11-25T09:23:48;40.00;;;13.65;;
62554;SDS011;48610;52.144;8.624;2022-11-25T09:26:50;46.40;;;13.70;;
62554;SDS011;48610;52.144;8.624;2022-11-25T09:29:51;44.20;;;13.57;;
62554;SDS011;48610;52.144;8.624;2022-11-25T09:32:52;44.75;;;13.35;;
62554;SDS011;48610;52.144;8.624;2022-11-25T09:35:54;45.35;;;12.23;;
62554;SDS011;48610;52.144;8.624;2022-11-25T09:38:59;35.58;;;13.40;;
62554;SDS011;48610;52.144;8.624;2022-11-25T09:52:56;46.53;;;13.63;;
62554;SDS011;48610;52.144;8.624;2022-11-25T09:59:41;53.55;;;14.43;;
62554;SDS011;48610;52.144;8.624;2022-11-25T10:06:27;50.40;;;16.83;;
62554;SDS011;48610;52.144;8.624;2022-11-25T10:09:31;50.35;;;17.52;;
62554;SDS011;48610;52.144;8.624;2022-11-25T10:12:36;55.67;;;17.85;;
62554;SDS011;48610;52.144;8.624;2022-11-25T10:15:39;50.97;;;15.32;;
62554;SDS011;48610;52.144;8.624;2022-11-25T10:18:48;45.08;;;15.50;;
62554;SDS011;48610;52.144;8.624;2022-11-25T10:22:24;39.33;;;14.80;;
62554;SDS011;48610;52.144;8.624;2022-11-25T10:25:29;40.35;;;13.15;;
62554;SDS011;48610;52.144;8.624;2022-11-25T10:28:34;45.53;;;15.98;;
62554;SDS011;48610;52.144;8.624;2022-11-25T10:31:35;50.53;;;15.48;;
62554;SDS011;48610;52.144;8.624;2022-11-25T10:34:39;65.70;;;16.13;;
62554;SDS011;48610;52.144;8.624;2022-11-25T10:37:45;48.72;;;17.23;;
62554;SDS011;48610;52.144;8.624;2022-11-25T10:40:48;60.20;;;18.52;;
62554;SDS011;48610;52.144;8.624;2022-11-25T10:43:51;42.35;;;18.75;;
62554;SDS011;48610;52.144;8.624;2022-11-25T10:53:38;50.00;;;20.70;;
62554;SDS011;48610;52.144;8.624;2022-11-25T10:56:42;43.65;;;14.00;;
62554;SDS011;48610;52.144;8.624;2022-11-25T10:59:57;29.60;;;10.32;;
62554;SDS011;48610;52.144;8.624;2022-11-25T11:03:00;38.75;;;10.02;;
62554;SDS011;48610;52.144;8.624;2022-11-25T11:06:27;35.60;;;10.88;;
62554;SDS011;48610;52.144;8.624;2022-11-25T11:09:38;30.15;;;9.50;;
62554;SDS011;48610;52.144;8.624;2022-11-25T11:12:50;37.38;;;10.35;;
62554;SDS011;48610;52.144;8.624;2022-11-25T11:15:58;37.03;;;10.73;;
62554;SDS011;48610;52.144;8.624;2022-11-25T11:18:59;33.40;;;10.38;;
62554;SDS011;48610;52.144;8.624;2022-11-25T11:22:22;39.17;;;9.40;;
62554;SDS011;48610;52.144;8.624;2022-11-25T11:25:26;38.80;;;11.00;;
62554;SDS011;48610;52.144;8.624;2022-11-25T11:31:38;37.00;;;11.45;;
62554;SDS011;48610;52.144;8.624;2022-11-25T11:41:42;36.05;;;14.70;;
62554;SDS011;48610;52.144;8.624;2022-11-25T11:48:28;39.47;;;13.23;;
62554;SDS011;48610;52.144;8.624;2022-11-25T11:55:19;48.78;;;16.92;;
62554;SDS011;48610;52.144;8.624;2022-11-25T12:08:13;39.95;;;17.75;;
62554;SDS011;48610;52.144;8.624;2022-11-25T12:11:22;54.10;;;18.27;;
62554;SDS011;48610;52.144;8.624;2022-11-25T12:17:33;35.40;;;14.77;;
62554;SDS011;48610;52.144;8.624;2022-11-25T12:20:45;50.80;;;18.50;;
62554;SDS011;48610;52.144;8.624;2022-11-25T12:24:05;38.38;;;16.90;;
62554;SDS011;48610;52.144;8.624;2022-11-25T12:27:51;37.17;;;16.42;;
62554;SDS011;48610;52.144;8.624;2022-11-25T12:31:26;39.00;;;16.63;;
62554;SDS011;48610;52.144;8.624;2022-11-25T12:34:40;33.77;;;15.87;;
62554;SDS011;48610;52.144;8.624;2022-11-25T12:38:17;30.50;;;15.43;;
62554;SDS011;48610;52.144;8.624;2022-11-25T12:41:42;42.03;;;15.50;;
62554;SDS011;48610;52.144;8.624;2022-11-25T12:48:00;46.83;;;16.05;;
62554;SDS011;48610;52.144;8.624;2022-11-25T12:51:05;42.35;;;17.05;;
62554;SDS011;48610;52.144;8.624;2022-11-25T13:11:45;37.00;;;16.80;;
62554;SDS011;48610;52.144;8.624;2022-11-25T13:18:24;35.45;;;16.67;;
62554;SDS011;48610;52.144;8.624;2022-11-25T13:21:27;49.83;;;17.80;;
62554;SDS011;48610;52.144;8.624;2022-11-25T13:30:40;40.10;;;15.27;;
62554;SDS011;48610;52.144;8.624;2022-11-25T13:36:43;38.80;;;16.42;;
62554;SDS011;48610;52.144;8.624;2022-11-25T13:39:49;47.17;;;15.90;;
62554;SDS011;48610;52.144;8.624;2022-11-25T13:43:19;35.47;;;15.55;;
62554;SDS011;48610;52.144;8.624;2022-11-25T13:53:01;28.00;;;14.05;;
62554;SDS011;48610;52.144;8.624;2022-11-25T13:59:36;37.97;;;14.43;;
62554;SDS011;48610;52.144;8.624;2022-11-25T14:02:48;31.83;;;14.75;;
62554;SDS011;48610;52.144;8.624;2022-11-25T14:06:05;42.97;;;13.65;;
62554;SDS011;48610;52.144;8.624;2022-11-25T14:16:01;30.00;;;12.88;;
62554;SDS011;48610;52.144;8.624;2022-11-25T14:25:45;25.13;;;11.05;;
62554;SDS011;48610;52.144;8.624;2022-11-25T14:32:19;35.10;;;10.88;;
62554;SDS011;48610;52.144;8.624;2022-11-25T14:35:24;26.48;;;10.40;;
62554;SDS011;48610;52.144;8.624;2022-11-25T14:38:37;22.17;;;10.52;;
62554;SDS011;48610;52.144;8.624;2022-11-25T14:44:54;25.27;;;11.13;;
62554;SDS011;48610;52.144;8.624;2022-11-25T14:47:57;26.08;;;9.90;;
62554;SDS011;48610;52.144;8.624;2022-11-25T14:51:11;26.63;;;10.02;;
62554;SDS011;48610;52.144;8.624;2022-11-25T14:54:17;38.88;;;10.20;;
62554;SDS011;48610;52.144;8.624;2022-11-25T14:57:18;18.98;;;9.80;;
62554;SDS011;48610;52.144;8.624;2022-11-25T15:00:28;26.65;;;9.07;;
62554;SDS011;48610;52.144;8.624;2022-11-25T15:03:29;26.17;;;9.82;;
62554;SDS011;48610;52.144;8.624;2022-11-25T15:06:39;28.15;;;9.90;;
62554;SDS011;48610;52.144;8.624;2022-11-25T15:09:42;26.05;;;10.30;;
62554;SDS011;48610;52.144;8.624;2022-11-25T15:12:44;46.03;;;11.38;;
62554;SDS011;48610;52.144;8.624;2022-11-25T15:15:45;25.48;;;10.02;;
62554;SDS011;48610;52.144;8.624;2022-11-25T15:18:56;29.48;;;10.02;;
62554;SDS011;48610;52.144;8.624;2022-11-25T15:21:59;20.58;;;8.80;;
62554;SDS011;48610;52.144;8.624;2022-11-25T15:25:06;26.38;;;8.82;;
62554;SDS011;48610;52.144;8.624;2022-11-25T15:28:13;33.15;;;8.57;;
62554;SDS011;48610;52.144;8.624;2022-11-25T15:31:18;28.45;;;8.88;;
62554;SDS011;48610;52.144;8.624;2022-11-25T15:34:21;19.48;;;8.52;;
62554;SDS011;48610;52.144;8.624;2022-11-25T15:37:23;23.33;;;8.57;;
62554;SDS011;48610;52.144;8.624;2022-11-25T15:43:42;22.60;;;7.78;;
62554;SDS011;48610;52.144;8.624;2022-11-25T15:46:53;46.65;;;9.10;;
62554;SDS011;48610;52.144;8.624;2022-11-25T15:50:02;32.33;;;10.25;;
62554;SDS011;48610;52.144;8.624;2022-11-25T15:53:22;28.75;;;8.75;;
62554;SDS011;48610;52.144;8.624;2022-11-25T15:56:25;20.75;;;8.43;;
62554;SDS011;48610;52.144;8.624;2022-11-25T16:02:51;25.10;;;9.20;;
62554;SDS011;48610;52.144;8.624;2022-11-25T16:05:55;28.38;;;10.63;;
62554;SDS011;48610;52.144;8.624;2022-11-25T16:09:00;32.38;;;10.07;;
62554;SDS011;48610;52.144;8.624;2022-11-25T16:12:04;30.92;;;10.48;;
62554;SDS011;48610;52.144;8.624;2022-11-25T16:15:14;31.23;;;10.07;;
62554;SDS011;48610;52.144;8.624;2022-11-25T16:18:16;31.35;;;10.20;;
62554;SDS011;48610;52.144;8.624;2022-11-25T16:21:26;22.35;;;9.65;;
62554;SDS011;48610;52.144;8.624;2022-11-25T16:24:47;26.52;;;9.60;;
62554;SDS011;48610;52.144;8.624;2022-11-25T16:27:49;19.83;;;10.23;;
62554;SDS011;48610;52.144;8.624;2022-11-25T16:30:50;25.25;;;10.88;;
62554;SDS011;48610;52.144;8.624;2022-11-25T16:33:52;22.55;;;9.95;;
62554;SDS011;48610;52.144;8.624;2022-11-25T16:36:55;24.10;;;10.75;;
62554;SDS011;48610;52.144;8.624;2022-11-25T16:39:55;29.35;;;10.63;;
62554;SDS011;48610;52.144;8.624;2022-11-25T16:42:56;34.50;;;10.57;;
62554;SDS011;48610;52.144;8.624;2022-11-25T16:45:57;34.65;;;10.48;;
62554;SDS011;48610;52.144;8.624;2022-11-25T16:48:57;29.17;;;10.88;;
62554;SDS011;48610;52.144;8.624;2022-11-25T16:52:03;28.20;;;10.60;;
62554;SDS011;48610;52.144;8.624;2022-11-25T16:55:04;32.65;;;11.15;;
62554;SDS011;48610;52.144;8.624;2022-11-25T16:58:08;40.13;;;11.93;;
62554;SDS011;48610;52.144;8.624;2022-11-25T17:01:25;28.65;;;9.48;;
62554;SDS011;48610;52.144;8.624;2022-11-25T17:04:28;20.00;;;8.50;;
62554;SDS011;48610;52.144;8.624;2022-11-25T17:07:28;29.55;;;9.02;;
62554;SDS011;48610;52.144;8.624;2022-11-25T17:10:29;33.60;;;9.70;;
62554;SDS011;48610;52.144;8.624;2022-11-25T17:13:30;39.72;;;8.82;;
62554;SDS011;48610;52.144;8.624;2022-11-25T17:16:30;31.17;;;8.88;;
62554;SDS011;48610;52.144;8.624;2022-11-25T17:19:31;35.50;;;8.85;;
62554;SDS011;48610;52.144;8.624;2022-11-25T17:22:32;38.20;;;9.20;;
62554;SDS011;48610;52.144;8.624;2022-11-25T17:25:32;29.52;;;8.30;;
62554;SDS011;48610;52.144;8.624;2022-11-25T17:28:34;46.10;;;10.68;;
62554;SDS011;48610;52.144;8.624;2022-11-25T17:31:34;27.05;;;11.20;;
62554;SDS011;48610;52.144;8.624;2022-11-25T17:34:37;31.15;;;11.25;;
62554;SDS011;48610;52.144;8.624;2022-11-25T17:37:38;32.20;;;10.13;;
62554;SDS011;48610;52.144;8.624;2022-11-25T17:40:40;27.13;;;10.70;;
62554;SDS011;48610;52.144;8.624;2022-11-25T17:43:42;32.55;;;10.50;;
62554;SDS011;48610;52.144;8.624;2022-11-25T17:46:45;37.00;;;10.95;;
62554;SDS011;48610;52.144;8.624;2022-11-25T17:49:46;35.38;;;11.82;;
62554;SDS011;48610;52.144;8.624;2022-11-25T17:52:47;29.70;;;8.77;;
62554;SDS011;48610;52.144;8.624;2022-11-25T17:55:48;30.38;;;10.57;;
62554;SDS011;48610;52.144;8.624;2022-11-25T17:58:50;32.88;;;10.63;;
62554;SDS011;48610;52.144;8.624;2022-11-25T18:01:52;25.17;;;7.90;;
62554;SDS011;48610;52.144;8.624;2022-11-25T18:04:54;25.20;;;8.57;;
62554;SDS011;48610;52.144;8.624;2022-11-25T18:07:55;43.63;;;9.63;;
62554;SDS011;48610;52.144;8.624;2022-11-25T18:10:56;29.20;;;10.43;;
62554;SDS011;48610;52.144;8.624;2022-11-25T18:13:57;42.20;;;9.60;;
62554;SDS011;48610;52.144;8.624;2022-11-25T18:17:03;24.70;;;8.25;;
62554;SDS011;48610;52.144;8.624;2022-11-25T18:20:23;26.52;;;7.28;;
62554;SDS011;48610;52.144;8.624;2022-11-25T18:23:24;26.30;;;8.35;;
62554;SDS011;48610;52.144;8.624;2022-11-25T18:26:25;27.95;;;7.82;;
62554;SDS011;48610;52.144;8.624;2022-11-25T18:29:26;27.48;;;7.72;;
62554;SDS011;48610;52.144;8.624;2022-11-25T18:32:27;26.63;;;11.02;;
62554;SDS011;48610;52.144;8.624;2022-11-25T18:35:29;46.83;;;14.00;;
62554;SDS011;48610;52.144;8.624;2022-11-25T18:38:31;57.10;;;18.30;;
62554;SDS011;48610;52.144;8.624;2022-11-25T18:41:31;55.58;;;17.25;;
62554;SDS011;48610;52.144;8.624;2022-11-25T18:44:33;50.38;;;19.52;;
62554;SDS011;48610;52.144;8.624;2022-11-25T18:47:42;36.80;;;12.10;;
62554;SDS011;48610;52.144;8.624;2022-11-25T18:50:43;32.40;;;10.73;;
62554;SDS011;48610;52.144;8.624;2022-11-25T18:53:44;36.60;;;13.60;;
62554;SDS011;48610;52.144;8.624;2022-11-25T18:56:45;36.58;;;13.93;;
62554;SDS011;48610;52.144;8.624;2022-11-25T18:59:50;39.78;;;11.80;;
62554;SDS011;48610;52.144;8.624;2022-11-25T19:02:51;35.65;;;12.45;;
62554;SDS011;48610;52.144;8.624;2022-11-25T19:05:52;37.03;;;11.98;;
62554;SDS011;48610;52.144;8.624;2022-11-25T19:09:00;24.73;;;8.85;;
62554;SDS011;48610;52.144;8.624;2022-11-25T19:12:02;28.45;;;10.00;;
62554;SDS011;48610;52.144;8.624;2022-11-25T19:15:04;27.83;;;10.13;;
62554;SDS011;48610;52.144;8.624;2022-11-25T19:18:05;32.63;;;10.25;;
62554;SDS011;48610;52.144;8.624;2022-11-25T19:21:07;26.20;;;8.25;;
62554;SDS011;48610;52.144;8.624;2022-11-25T19:24:13;26.73;;;8.52;;
62554;SDS011;48610;52.144;8.624;2022-11-25T19:27:16;45.30;;;12.27;;
62554;SDS011;48610;52.144;8.624;2022-11-25T19:30:21;28.92;;;9.73;;
62554;SDS011;48610;52.144;8.624;2022-11-25T19:33:26;41.70;;;10.32;;
62554;SDS011;48610;52.144;8.624;2022-11-25T19:36:32;52.40;;;13.23;;
62554;SDS011;48610;52.144;8.624;2022-11-25T19:39:34;65.05;;;25.50;;
62554;SDS011;48610;52.144;8.624;2022-11-25T19:42:35;27.85;;;10.63;;
62554;SDS011;48610;52.144;8.624;2022-11-25T19:45:35;106.50;;;36.65;;
62554;SDS011;48610;52.144;8.624;2022-11-25T19:48:36;72.15;;;25.33;;
62554;SDS011;48610;52.144;8.624;2022-11-25T19:51:38;69.43;;;28.25;;
62554;SDS011;48610;52.144;8.624;2022-11-25T19:54:39;53.33;;;18.08;;
62554;SDS011;48610;52.144;8.624;2022-11-25T19:57:40;105.03;;;47.47;;
62554;SDS011;48610;52.144;8.624;2022-11-25T20:00:41;41.25;;;13.52;;
62554;SDS011;48610;52.144;8.624;2022-11-25T20:03:44;67.20;;;26.20;;
62554;SDS011;48610;52.144;8.624;2022-11-25T20:06:45;63.75;;;27.23;;
62554;SDS011;48610;52.144;8.624;2022-11-25T20:09:47;48.47;;;18.08;;
62554;SDS011;48610;52.144;8.624;2022-11-25T20:12:50;40.75;;;15.18;;
62554;SDS011;48610;52.144;8.624;2022-11-25T20:15:52;34.67;;;14.68;;
62554;SDS011;48610;52.144;8.624;2022-11-25T20:18:55;91.10;;;31.58;;
62554;SDS011;48610;52.144;8.624;2022-11-25T20:21:56;116.38;;;45.50;;
62554;SDS011;48610;52.144;8.624;2022-11-25T20:24:57;47.83;;;16.15;;